sensor_id;sensor_type;location;lat;lon;timestamp;P1;durP1;ratioP1;P2;durP2;ratioP2
15516;SDS011;7860;52.030;5.572;2023-04-15T00:03:36;8.16;;;3.73;;
15516;SDS011;7860;52.030;5.572;2023-04-15T00:03:36;9.48;;;4.15;;
15516;SDS011;7860;52.030;5.572;2023-04-15T00:04:33;10.80;;;4.22;;
15516;SDS011;7860;52.030;5.572;2023-04-15T00:05:33;8.78;;;3.81;;
15516;SDS011;7860;52.030;5.572;2023-04-15T00:06:33;9.69;;;3.96;;
15516;SDS011;7860;52.030;5.572;2023-04-15T00:07:33;8.67;;;3.91;;
15516;SDS011;7860;52.030;5.572;2023-04-15T00:08:34;10.69;;;4.08;;
15516;SDS011;7860;52.030;5.572;2023-04-15T00:09:34;8.76;;;4.01;;
15516;SDS011;7860;52.030;5.572;2023-04-15T00:10:34;8.80;;;4.01;;
15516;SDS011;7860;52.030;5.572;2023-04-15T00:11:34;11.27;;;4.21;;
15516;SDS011;7860;52.030;5.572;2023-04-15T00:12:35;8.43;;;3.96;;
15516;SDS011;7860;52.030;5.572;2023-04-15T00:13:35;8.09;;;3.75;;
15516;SDS011;7860;52.030;5.572;2023-04-15T00:14:35;9.25;;;4.07;;
15516;SDS011;7860;52.030;5.572;2023-04-15T00:15:36;8.48;;;3.89;;
15516;SDS011;7860;52.030;5.572;2023-04-15T00:16:36;8.31;;;3.81;;
15516;SDS011;7860;52.030;5.572;2023-04-15T00:17:36;8.69;;;3.92;;
15516;SDS011;7860;52.030;5.572;2023-04-15T00:18:37;9.17;;;4.20;;
15516;SDS011;7860;52.030;5.572;2023-04-15T00:19:37;10.97;;;4.82;;
15516;SDS011;7860;52.030;5.572;2023-04-15T00:20:38;8.91;;;4.25;;
15516;SDS011;7860;52.030;5.572;2023-04-15T00:21:38;10.43;;;4.28;;
15516;SDS011;7860;52.030;5.572;2023-04-15T00:22:38;8.84;;;4.18;;
15516;SDS011;7860;52.030;5.572;2023-04-15T00:23:38;10.66;;;4.53;;
15516;SDS011;7860;52.030;5.572;2023-04-15T00:24:38;8.81;;;4.13;;
15516;SDS011;7860;52.030;5.572;2023-04-15T00:25:38;10.64;;;4.64;;
15516;SDS011;7860;52.030;5.572;2023-04-15T00:26:39;10.84;;;4.41;;
15516;SDS011;7860;52.030;5.572;2023-04-15T00:27:39;9.42;;;4.35;;
15516;SDS011;7860;52.030;5.572;2023-04-15T00:28:39;8.73;;;4.16;;
15516;SDS011;7860;52.030;5.572;2023-04-15T00:29:39;8.69;;;4.38;;
15516;SDS011;7860;52.030;5.572;2023-04-15T00:30:39;9.28;;;4.18;;
15516;SDS011;7860;52.030;5.572;2023-04-15T00:31:40;8.82;;;4.35;;
15516;SDS011;7860;52.030;5.572;2023-04-15T00:32:40;9.17;;;4.59;;
15516;SDS011;7860;52.030;5.572;2023-04-15T00:33:40;9.25;;;4.50;;
15516;SDS011;7860;52.030;5.572;2023-04-15T00:34:40;9.88;;;4.41;;
15516;SDS011;7860;52.030;5.572;2023-04-15T00:35:41;9.38;;;4.37;;
15516;SDS011;7860;52.030;5.572;2023-04-15T00:36:41;8.94;;;4.66;;
15516;SDS011;7860;52.030;5.572;2023-04-15T00:37:42;9.57;;;4.23;;
15516;SDS011;7860;52.030;5.572;2023-04-15T00:38:42;9.08;;;4.55;;
15516;SDS011;7860;52.030;5.572;2023-04-15T00:39:42;10.63;;;4.71;;
15516;SDS011;7860;52.030;5.572;2023-04-15T00:40:42;9.96;;;4.39;;
15516;SDS011;7860;52.030;5.572;2023-04-15T00:41:43;11.58;;;4.83;;
15516;SDS011;7860;52.030;5.572;2023-04-15T00:42:43;8.89;;;4.64;;
15516;SDS011;7860;52.030;5.572;2023-04-15T00:43:43;10.41;;;4.59;;
15516;SDS011;7860;52.030;5.572;2023-04-15T00:44:43;9.74;;;4.66;;
15516;SDS011;7860;52.030;5.572;2023-04-15T00:45:44;9.82;;;4.44;;
15516;SDS011;7860;52.030;5.572;2023-04-15T00:46:44;10.94;;;4.72;;
15516;SDS011;7860;52.030;5.572;2023-04-15T00:47:44;9.19;;;4.81;;
15516;SDS011;7860;52.030;5.572;2023-04-15T00:48:45;11.23;;;4.68;;
15516;SDS011;7860;52.030;5.572;2023-04-15T00:49:45;9.25;;;4.73;;
15516;SDS011;7860;52.030;5.572;2023-04-15T00:50:45;10.07;;;4.57;;
15516;SDS011;7860;52.030;5.572;2023-04-15T00:51:46;9.76;;;4.54;;
15516;SDS011;7860;52.030;5.572;2023-04-15T00:52:46;8.59;;;4.23;;
15516;SDS011;7860;52.030;5.572;2023-04-15T00:53:47;9.75;;;4.73;;
15516;SDS011;7860;52.030;5.572;2023-04-15T00:54:47;10.49;;;4.40;;
15516;SDS011;7860;52.030;5.572;2023-04-15T00:55:48;10.57;;;4.79;;
15516;SDS011;7860;52.030;5.572;2023-04-15T00:56:48;10.58;;;5.02;;
15516;SDS011;7860;52.030;5.572;2023-04-15T00:57:48;9.71;;;4.59;;
15516;SDS011;7860;52.030;5.572;2023-04-15T00:58:49;11.62;;;4.60;;
15516;SDS011;7860;52.030;5.572;2023-04-15T00:59:49;9.30;;;4.36;;
15516;SDS011;7860;52.030;5.572;2023-04-15T01:00:50;9.62;;;4.30;;
15516;SDS011;7860;52.030;5.572;2023-04-15T01:01:50;9.79;;;4.85;;
15516;SDS011;7860;52.030;5.572;2023-04-15T01:02:50;10.48;;;4.58;;
15516;SDS011;7860;52.030;5.572;2023-04-15T01:03:51;11.16;;;4.74;;
15516;SDS011;7860;52.030;5.572;2023-04-15T01:04:51;9.53;;;4.66;;
15516;SDS011;7860;52.030;5.572;2023-04-15T01:05:52;11.26;;;4.80;;
15516;SDS011;7860;52.030;5.572;2023-04-15T01:06:52;10.43;;;4.71;;
15516;SDS011;7860;52.030;5.572;2023-04-15T01:07:52;10.05;;;5.00;;
15516;SDS011;7860;52.030;5.572;2023-04-15T01:08:53;10.06;;;4.68;;
15516;SDS011;7860;52.030;5.572;2023-04-15T01:09:53;9.74;;;4.71;;
15516;SDS011;7860;52.030;5.572;2023-04-15T01:10:54;10.21;;;4.68;;
15516;SDS011;7860;52.030;5.572;2023-04-15T01:11:54;10.00;;;4.38;;
15516;SDS011;7860;52.030;5.572;2023-04-15T01:12:54;10.76;;;4.60;;
15516;SDS011;7860;52.030;5.572;2023-04-15T01:13:55;9.83;;;4.75;;
15516;SDS011;7860;52.030;5.572;2023-04-15T01:14:55;8.67;;;4.36;;
15516;SDS011;7860;52.030;5.572;2023-04-15T01:15:55;8.42;;;4.41;;
15516;SDS011;7860;52.030;5.572;2023-04-15T01:16:56;9.53;;;4.65;;
15516;SDS011;7860;52.030;5.572;2023-04-15T01:17:56;12.04;;;4.98;;
15516;SDS011;7860;52.030;5.572;2023-04-15T01:18:57;10.13;;;4.85;;
15516;SDS011;7860;52.030;5.572;2023-04-15T01:19:57;8.73;;;4.83;;
15516;SDS011;7860;52.030;5.572;2023-04-15T01:20:57;10.67;;;4.90;;
15516;SDS011;7860;52.030;5.572;2023-04-15T01:21:58;10.56;;;4.77;;
15516;SDS011;7860;52.030;5.572;2023-04-15T01:22:58;9.77;;;4.44;;
15516;SDS011;7860;52.030;5.572;2023-04-15T01:23:58;9.81;;;4.72;;
15516;SDS011;7860;52.030;5.572;2023-04-15T01:25:00;8.97;;;4.70;;
15516;SDS011;7860;52.030;5.572;2023-04-15T01:25:59;10.31;;;4.67;;
15516;SDS011;7860;52.030;5.572;2023-04-15T01:26:59;9.00;;;4.45;;
15516;SDS011;7860;52.030;5.572;2023-04-15T01:28:00;12.32;;;4.90;;
15516;SDS011;7860;52.030;5.572;2023-04-15T01:29:00;10.43;;;4.84;;
15516;SDS011;7860;52.030;5.572;2023-04-15T01:30:04;9.83;;;4.67;;
15516;SDS011;7860;52.030;5.572;2023-04-15T01:31:10;12.32;;;5.17;;
15516;SDS011;7860;52.030;5.572;2023-04-15T01:32:02;12.72;;;5.05;;
15516;SDS011;7860;52.030;5.572;2023-04-15T01:33:02;11.57;;;5.07;;
15516;SDS011;7860;52.030;5.572;2023-04-15T01:34:02;10.01;;;4.93;;
15516;SDS011;7860;52.030;5.572;2023-04-15T01:35:02;12.18;;;5.43;;
15516;SDS011;7860;52.030;5.572;2023-04-15T01:36:03;11.64;;;5.16;;
15516;SDS011;7860;52.030;5.572;2023-04-15T01:37:03;10.72;;;4.94;;
15516;SDS011;7860;52.030;5.572;2023-04-15T01:38:06;11.41;;;5.06;;
15516;SDS011;7860;52.030;5.572;2023-04-15T01:39:04;10.36;;;4.85;;
15516;SDS011;7860;52.030;5.572;2023-04-15T01:40:04;10.52;;;4.91;;
15516;SDS011;7860;52.030;5.572;2023-04-15T01:41:05;13.25;;;4.88;;
15516;SDS011;7860;52.030;5.572;2023-04-15T01:42:05;9.98;;;4.88;;
15516;SDS011;7860;52.030;5.572;2023-04-15T01:43:05;10.78;;;4.89;;
15516;SDS011;7860;52.030;5.572;2023-04-15T01:44:06;9.65;;;5.11;;
15516;SDS011;7860;52.030;5.572;2023-04-15T01:45:06;11.15;;;4.98;;
15516;SDS011;7860;52.030;5.572;2023-04-15T01:46:07;11.53;;;4.98;;
15516;SDS011;7860;52.030;5.572;2023-04-15T01:47:07;10.95;;;5.31;;
15516;SDS011;7860;52.030;5.572;2023-04-15T01:48:08;8.92;;;4.98;;
15516;SDS011;7860;52.030;5.572;2023-04-15T01:49:08;10.22;;;5.08;;
15516;SDS011;7860;52.030;5.572;2023-04-15T01:50:08;9.49;;;5.15;;
15516;SDS011;7860;52.030;5.572;2023-04-15T01:51:08;11.22;;;5.58;;
15516;SDS011;7860;52.030;5.572;2023-04-15T01:52:08;9.95;;;5.14;;
15516;SDS011;7860;52.030;5.572;2023-04-15T01:53:09;9.60;;;4.99;;
15516;SDS011;7860;52.030;5.572;2023-04-15T01:54:09;9.83;;;4.83;;
15516;SDS011;7860;52.030;5.572;2023-04-15T01:55:10;10.78;;;5.48;;
15516;SDS011;7860;52.030;5.572;2023-04-15T01:56:10;10.07;;;5.11;;
15516;SDS011;7860;52.030;5.572;2023-04-15T01:57:10;9.90;;;5.19;;
15516;SDS011;7860;52.030;5.572;2023-04-15T01:58:10;10.02;;;5.33;;
15516;SDS011;7860;52.030;5.572;2023-04-15T01:59:11;10.44;;;5.08;;
15516;SDS011;7860;52.030;5.572;2023-04-15T02:00:12;11.17;;;5.27;;
15516;SDS011;7860;52.030;5.572;2023-04-15T02:01:12;10.48;;;5.23;;
15516;SDS011;7860;52.030;5.572;2023-04-15T02:02:12;10.24;;;5.18;;
15516;SDS011;7860;52.030;5.572;2023-04-15T02:03:12;12.41;;;5.38;;
15516;SDS011;7860;52.030;5.572;2023-04-15T02:04:12;10.53;;;5.21;;
15516;SDS011;7860;52.030;5.572;2023-04-15T02:05:13;10.24;;;5.35;;
15516;SDS011;7860;52.030;5.572;2023-04-15T02:06:13;10.01;;;5.55;;
15516;SDS011;7860;52.030;5.572;2023-04-15T02:07:14;9.76;;;5.76;;
15516;SDS011;7860;52.030;5.572;2023-04-15T02:08:14;10.26;;;5.53;;
15516;SDS011;7860;52.030;5.572;2023-04-15T02:09:14;9.80;;;5.67;;
15516;SDS011;7860;52.030;5.572;2023-04-15T02:10:15;11.99;;;5.52;;
15516;SDS011;7860;52.030;5.572;2023-04-15T02:11:15;10.71;;;5.61;;
15516;SDS011;7860;52.030;5.572;2023-04-15T02:12:16;10.84;;;5.34;;
15516;SDS011;7860;52.030;5.572;2023-04-15T02:13:16;10.60;;;5.53;;
15516;SDS011;7860;52.030;5.572;2023-04-15T02:14:16;9.74;;;5.87;;
15516;SDS011;7860;52.030;5.572;2023-04-15T02:15:17;10.31;;;5.34;;
15516;SDS011;7860;52.030;5.572;2023-04-15T02:16:17;11.36;;;5.69;;
15516;SDS011;7860;52.030;5.572;2023-04-15T02:17:18;10.50;;;5.40;;
15516;SDS011;7860;52.030;5.572;2023-04-15T02:18:19;10.41;;;5.58;;
15516;SDS011;7860;52.030;5.572;2023-04-15T02:19:19;11.22;;;6.12;;
15516;SDS011;7860;52.030;5.572;2023-04-15T02:20:20;11.12;;;5.94;;
15516;SDS011;7860;52.030;5.572;2023-04-15T02:21:20;10.66;;;5.42;;
15516;SDS011;7860;52.030;5.572;2023-04-15T02:22:20;11.45;;;5.63;;
15516;SDS011;7860;52.030;5.572;2023-04-15T02:23:21;11.86;;;5.73;;
15516;SDS011;7860;52.030;5.572;2023-04-15T02:24:21;10.08;;;5.69;;
15516;SDS011;7860;52.030;5.572;2023-04-15T02:25:22;9.31;;;5.70;;
15516;SDS011;7860;52.030;5.572;2023-04-15T02:26:22;10.15;;;5.51;;
15516;SDS011;7860;52.030;5.572;2023-04-15T02:27:22;10.00;;;5.68;;
15516;SDS011;7860;52.030;5.572;2023-04-15T02:28:22;10.46;;;5.58;;
15516;SDS011;7860;52.030;5.572;2023-04-15T02:29:23;10.84;;;5.98;;
15516;SDS011;7860;52.030;5.572;2023-04-15T02:30:23;10.04;;;5.65;;
15516;SDS011;7860;52.030;5.572;2023-04-15T02:31:24;11.20;;;5.86;;
15516;SDS011;7860;52.030;5.572;2023-04-15T02:32:24;11.12;;;5.87;;
15516;SDS011;7860;52.030;5.572;2023-04-15T02:33:24;9.88;;;5.71;;
15516;SDS011;7860;52.030;5.572;2023-04-15T02:34:24;12.76;;;6.20;;
15516;SDS011;7860;52.030;5.572;2023-04-15T02:35:26;10.34;;;5.92;;
15516;SDS011;7860;52.030;5.572;2023-04-15T02:36:25;10.52;;;6.03;;
15516;SDS011;7860;52.030;5.572;2023-04-15T02:37:26;8.79;;;5.52;;
15516;SDS011;7860;52.030;5.572;2023-04-15T02:38:26;10.32;;;5.99;;
15516;SDS011;7860;52.030;5.572;2023-04-15T02:39:27;12.43;;;6.02;;
15516;SDS011;7860;52.030;5.572;2023-04-15T02:40:28;10.11;;;5.64;;
15516;SDS011;7860;52.030;5.572;2023-04-15T02:41:28;10.61;;;5.39;;
15516;SDS011;7860;52.030;5.572;2023-04-15T02:42:29;10.59;;;5.76;;
15516;SDS011;7860;52.030;5.572;2023-04-15T02:43:30;10.94;;;5.65;;
15516;SDS011;7860;52.030;5.572;2023-04-15T02:44:30;9.70;;;5.53;;
15516;SDS011;7860;52.030;5.572;2023-04-15T02:45:31;10.53;;;5.82;;
15516;SDS011;7860;52.030;5.572;2023-04-15T02:46:31;12.07;;;6.27;;
15516;SDS011;7860;52.030;5.572;2023-04-15T02:47:32;9.82;;;5.94;;
15516;SDS011;7860;52.030;5.572;2023-04-15T02:48:32;12.04;;;6.31;;
15516;SDS011;7860;52.030;5.572;2023-04-15T02:49:33;10.34;;;5.90;;
15516;SDS011;7860;52.030;5.572;2023-04-15T02:50:33;11.73;;;6.61;;
15516;SDS011;7860;52.030;5.572;2023-04-15T02:51:34;12.57;;;6.01;;
15516;SDS011;7860;52.030;5.572;2023-04-15T02:52:35;10.08;;;5.69;;
15516;SDS011;7860;52.030;5.572;2023-04-15T02:53:35;12.12;;;6.49;;
15516;SDS011;7860;52.030;5.572;2023-04-15T02:54:35;11.63;;;6.15;;
15516;SDS011;7860;52.030;5.572;2023-04-15T02:55:36;12.71;;;6.14;;
15516;SDS011;7860;52.030;5.572;2023-04-15T02:56:37;10.32;;;6.28;;
15516;SDS011;7860;52.030;5.572;2023-04-15T02:57:37;9.92;;;6.56;;
15516;SDS011;7860;52.030;5.572;2023-04-15T02:58:38;10.29;;;6.00;;
15516;SDS011;7860;52.030;5.572;2023-04-15T02:59:39;10.49;;;6.31;;
15516;SDS011;7860;52.030;5.572;2023-04-15T03:00:39;11.07;;;5.95;;
15516;SDS011;7860;52.030;5.572;2023-04-15T03:01:40;11.68;;;6.43;;
15516;SDS011;7860;52.030;5.572;2023-04-15T03:02:40;11.62;;;6.49;;
15516;SDS011;7860;52.030;5.572;2023-04-15T03:03:41;11.56;;;6.29;;
15516;SDS011;7860;52.030;5.572;2023-04-15T03:04:41;10.31;;;5.91;;
15516;SDS011;7860;52.030;5.572;2023-04-15T03:05:43;12.36;;;6.48;;
15516;SDS011;7860;52.030;5.572;2023-04-15T03:06:42;10.72;;;6.34;;
15516;SDS011;7860;52.030;5.572;2023-04-15T03:07:43;11.99;;;6.30;;
15516;SDS011;7860;52.030;5.572;2023-04-15T03:08:43;13.37;;;6.57;;
15516;SDS011;7860;52.030;5.572;2023-04-15T03:09:44;10.71;;;6.14;;
15516;SDS011;7860;52.030;5.572;2023-04-15T03:10:45;12.39;;;6.21;;
15516;SDS011;7860;52.030;5.572;2023-04-15T03:11:45;10.84;;;6.13;;
15516;SDS011;7860;52.030;5.572;2023-04-15T03:12:46;9.62;;;6.25;;
15516;SDS011;7860;52.030;5.572;2023-04-15T03:13:46;11.52;;;6.46;;
15516;SDS011;7860;52.030;5.572;2023-04-15T03:14:46;11.30;;;5.96;;
15516;SDS011;7860;52.030;5.572;2023-04-15T03:15:47;11.77;;;6.77;;
15516;SDS011;7860;52.030;5.572;2023-04-15T03:16:48;11.85;;;6.46;;
15516;SDS011;7860;52.030;5.572;2023-04-15T03:17:48;11.70;;;6.58;;
15516;SDS011;7860;52.030;5.572;2023-04-15T03:18:48;10.97;;;6.35;;
15516;SDS011;7860;52.030;5.572;2023-04-15T03:19:49;12.18;;;6.75;;
15516;SDS011;7860;52.030;5.572;2023-04-15T03:20:50;11.05;;;6.54;;
15516;SDS011;7860;52.030;5.572;2023-04-15T03:21:50;10.65;;;6.28;;
15516;SDS011;7860;52.030;5.572;2023-04-15T03:22:51;13.11;;;7.08;;
15516;SDS011;7860;52.030;5.572;2023-04-15T03:23:52;12.45;;;7.15;;
15516;SDS011;7860;52.030;5.572;2023-04-15T03:24:52;10.76;;;6.62;;
15516;SDS011;7860;52.030;5.572;2023-04-15T03:25:53;11.47;;;6.44;;
15516;SDS011;7860;52.030;5.572;2023-04-15T03:26:53;13.55;;;6.53;;
15516;SDS011;7860;52.030;5.572;2023-04-15T03:27:54;12.75;;;6.90;;
15516;SDS011;7860;52.030;5.572;2023-04-15T03:28:54;13.99;;;7.13;;
15516;SDS011;7860;52.030;5.572;2023-04-15T03:29:55;11.81;;;6.51;;
15516;SDS011;7860;52.030;5.572;2023-04-15T03:30:55;11.01;;;6.78;;
15516;SDS011;7860;52.030;5.572;2023-04-15T03:31:56;12.20;;;6.81;;
15516;SDS011;7860;52.030;5.572;2023-04-15T03:32:57;11.62;;;7.12;;
15516;SDS011;7860;52.030;5.572;2023-04-15T03:33:57;11.16;;;6.99;;
15516;SDS011;7860;52.030;5.572;2023-04-15T03:34:58;11.17;;;7.06;;
15516;SDS011;7860;52.030;5.572;2023-04-15T03:35:58;14.18;;;7.07;;
15516;SDS011;7860;52.030;5.572;2023-04-15T03:36:59;11.56;;;6.86;;
15516;SDS011;7860;52.030;5.572;2023-04-15T03:37:59;11.59;;;6.93;;
15516;SDS011;7860;52.030;5.572;2023-04-15T03:39:00;14.53;;;7.55;;
15516;SDS011;7860;52.030;5.572;2023-04-15T03:40:01;11.69;;;7.39;;
15516;SDS011;7860;52.030;5.572;2023-04-15T03:41:00;11.76;;;7.16;;
15516;SDS011;7860;52.030;5.572;2023-04-15T03:42:01;11.50;;;7.26;;
15516;SDS011;7860;52.030;5.572;2023-04-15T03:43:01;13.82;;;7.69;;
15516;SDS011;7860;52.030;5.572;2023-04-15T03:44:02;10.03;;;7.05;;
15516;SDS011;7860;52.030;5.572;2023-04-15T03:45:02;13.73;;;7.33;;
15516;SDS011;7860;52.030;5.572;2023-04-15T03:46:03;13.63;;;7.56;;
15516;SDS011;7860;52.030;5.572;2023-04-15T03:47:04;12.20;;;7.94;;
15516;SDS011;7860;52.030;5.572;2023-04-15T03:48:04;13.96;;;7.81;;
15516;SDS011;7860;52.030;5.572;2023-04-15T03:49:05;12.88;;;7.69;;
15516;SDS011;7860;52.030;5.572;2023-04-15T03:50:05;12.63;;;8.10;;
15516;SDS011;7860;52.030;5.572;2023-04-15T03:51:05;12.56;;;7.69;;
15516;SDS011;7860;52.030;5.572;2023-04-15T03:52:05;14.57;;;7.79;;
15516;SDS011;7860;52.030;5.572;2023-04-15T03:53:06;13.81;;;8.08;;
15516;SDS011;7860;52.030;5.572;2023-04-15T03:54:07;12.46;;;7.77;;
15516;SDS011;7860;52.030;5.572;2023-04-15T03:55:07;12.53;;;7.99;;
15516;SDS011;7860;52.030;5.572;2023-04-15T03:56:08;13.28;;;8.50;;
15516;SDS011;7860;52.030;5.572;2023-04-15T03:57:09;12.68;;;8.09;;
15516;SDS011;7860;52.030;5.572;2023-04-15T03:58:09;14.31;;;8.22;;
15516;SDS011;7860;52.030;5.572;2023-04-15T03:59:10;13.84;;;7.57;;
15516;SDS011;7860;52.030;5.572;2023-04-15T04:00:10;13.84;;;8.33;;
15516;SDS011;7860;52.030;5.572;2023-04-15T04:01:11;14.44;;;8.21;;
15516;SDS011;7860;52.030;5.572;2023-04-15T04:02:12;13.76;;;8.57;;
15516;SDS011;7860;52.030;5.572;2023-04-15T04:03:12;13.12;;;8.27;;
15516;SDS011;7860;52.030;5.572;2023-04-15T04:04:13;12.72;;;8.41;;
15516;SDS011;7860;52.030;5.572;2023-04-15T04:05:13;12.83;;;7.93;;
15516;SDS011;7860;52.030;5.572;2023-04-15T04:06:14;13.28;;;8.48;;
15516;SDS011;7860;52.030;5.572;2023-04-15T04:07:14;13.44;;;8.14;;
15516;SDS011;7860;52.030;5.572;2023-04-15T04:08:15;14.01;;;8.80;;
15516;SDS011;7860;52.030;5.572;2023-04-15T04:09:15;12.04;;;7.80;;
15516;SDS011;7860;52.030;5.572;2023-04-15T04:10:16;14.01;;;8.12;;
15516;SDS011;7860;52.030;5.572;2023-04-15T04:11:16;12.53;;;8.33;;
15516;SDS011;7860;52.030;5.572;2023-04-15T04:12:17;13.67;;;8.36;;
15516;SDS011;7860;52.030;5.572;2023-04-15T04:13:17;13.02;;;8.49;;
15516;SDS011;7860;52.030;5.572;2023-04-15T04:14:18;13.22;;;8.43;;
15516;SDS011;7860;52.030;5.572;2023-04-15T04:15:18;13.97;;;8.26;;
15516;SDS011;7860;52.030;5.572;2023-04-15T04:16:19;13.44;;;7.99;;
15516;SDS011;7860;52.030;5.572;2023-04-15T04:17:19;12.82;;;8.30;;
15516;SDS011;7860;52.030;5.572;2023-04-15T04:18:20;12.97;;;8.47;;
15516;SDS011;7860;52.030;5.572;2023-04-15T04:19:20;13.69;;;8.57;;
15516;SDS011;7860;52.030;5.572;2023-04-15T04:20:20;13.76;;;8.65;;
15516;SDS011;7860;52.030;5.572;2023-04-15T04:21:21;13.74;;;8.51;;
15516;SDS011;7860;52.030;5.572;2023-04-15T04:22:22;13.35;;;8.76;;
15516;SDS011;7860;52.030;5.572;2023-04-15T04:23:21;14.04;;;8.69;;
15516;SDS011;7860;52.030;5.572;2023-04-15T04:24:22;13.57;;;8.46;;
15516;SDS011;7860;52.030;5.572;2023-04-15T04:25:22;13.01;;;8.41;;
15516;SDS011;7860;52.030;5.572;2023-04-15T04:26:23;12.63;;;8.28;;
15516;SDS011;7860;52.030;5.572;2023-04-15T04:27:23;13.41;;;8.39;;
15516;SDS011;7860;52.030;5.572;2023-04-15T04:28:24;13.18;;;8.75;;
15516;SDS011;7860;52.030;5.572;2023-04-15T04:29:24;14.07;;;8.75;;
15516;SDS011;7860;52.030;5.572;2023-04-15T04:30:24;12.28;;;8.75;;
15516;SDS011;7860;52.030;5.572;2023-04-15T04:31:25;14.28;;;8.85;;
15516;SDS011;7860;52.030;5.572;2023-04-15T04:32:26;15.84;;;9.00;;
15516;SDS011;7860;52.030;5.572;2023-04-15T04:33:26;13.21;;;9.07;;
15516;SDS011;7860;52.030;5.572;2023-04-15T04:34:27;12.82;;;8.37;;
15516;SDS011;7860;52.030;5.572;2023-04-15T04:35:27;11.75;;;8.25;;
15516;SDS011;7860;52.030;5.572;2023-04-15T04:36:27;13.86;;;8.65;;
15516;SDS011;7860;52.030;5.572;2023-04-15T04:37:28;13.43;;;8.76;;
15516;SDS011;7860;52.030;5.572;2023-04-15T04:38:28;13.55;;;9.12;;
15516;SDS011;7860;52.030;5.572;2023-04-15T04:39:29;13.86;;;8.86;;
15516;SDS011;7860;52.030;5.572;2023-04-15T04:40:29;14.23;;;9.10;;
15516;SDS011;7860;52.030;5.572;2023-04-15T04:41:30;14.05;;;8.92;;
15516;SDS011;7860;52.030;5.572;2023-04-15T04:42:30;14.22;;;8.75;;
15516;SDS011;7860;52.030;5.572;2023-04-15T04:43:31;13.35;;;8.65;;
15516;SDS011;7860;52.030;5.572;2023-04-15T04:44:31;14.24;;;9.05;;
15516;SDS011;7860;52.030;5.572;2023-04-15T04:45:32;13.15;;;8.81;;
15516;SDS011;7860;52.030;5.572;2023-04-15T04:46:32;13.58;;;9.03;;
15516;SDS011;7860;52.030;5.572;2023-04-15T04:47:33;15.70;;;9.56;;
15516;SDS011;7860;52.030;5.572;2023-04-15T04:48:33;13.69;;;9.04;;
15516;SDS011;7860;52.030;5.572;2023-04-15T04:49:34;13.56;;;9.04;;
15516;SDS011;7860;52.030;5.572;2023-04-15T04:50:34;12.93;;;8.98;;
15516;SDS011;7860;52.030;5.572;2023-04-15T04:51:35;12.82;;;8.85;;
15516;SDS011;7860;52.030;5.572;2023-04-15T04:52:35;14.37;;;9.33;;
15516;SDS011;7860;52.030;5.572;2023-04-15T04:53:35;14.29;;;9.28;;
15516;SDS011;7860;52.030;5.572;2023-04-15T04:54:36;15.73;;;9.59;;
15516;SDS011;7860;52.030;5.572;2023-04-15T04:55:36;13.44;;;9.21;;
15516;SDS011;7860;52.030;5.572;2023-04-15T04:56:37;15.45;;;9.72;;
15516;SDS011;7860;52.030;5.572;2023-04-15T04:57:38;13.93;;;9.53;;
15516;SDS011;7860;52.030;5.572;2023-04-15T04:58:38;13.09;;;9.20;;
15516;SDS011;7860;52.030;5.572;2023-04-15T04:59:39;14.37;;;9.26;;
15516;SDS011;7860;52.030;5.572;2023-04-15T05:00:39;14.01;;;9.37;;
15516;SDS011;7860;52.030;5.572;2023-04-15T05:01:40;15.88;;;9.31;;
15516;SDS011;7860;52.030;5.572;2023-04-15T05:02:40;13.82;;;8.88;;
15516;SDS011;7860;52.030;5.572;2023-04-15T05:03:41;15.89;;;9.22;;
15516;SDS011;7860;52.030;5.572;2023-04-15T05:04:41;15.04;;;9.70;;
15516;SDS011;7860;52.030;5.572;2023-04-15T05:05:42;15.53;;;9.79;;
15516;SDS011;7860;52.030;5.572;2023-04-15T05:06:42;14.55;;;9.36;;
15516;SDS011;7860;52.030;5.572;2023-04-15T05:07:43;13.91;;;9.39;;
15516;SDS011;7860;52.030;5.572;2023-04-15T05:08:43;13.33;;;9.60;;
15516;SDS011;7860;52.030;5.572;2023-04-15T05:09:43;13.12;;;9.52;;
15516;SDS011;7860;52.030;5.572;2023-04-15T05:10:44;16.17;;;10.06;;
15516;SDS011;7860;52.030;5.572;2023-04-15T05:11:44;13.57;;;9.83;;
15516;SDS011;7860;52.030;5.572;2023-04-15T05:12:45;13.23;;;9.94;;
15516;SDS011;7860;52.030;5.572;2023-04-15T05:13:45;14.26;;;9.89;;
15516;SDS011;7860;52.030;5.572;2023-04-15T05:14:46;17.06;;;10.27;;
15516;SDS011;7860;52.030;5.572;2023-04-15T05:15:46;13.39;;;9.66;;
15516;SDS011;7860;52.030;5.572;2023-04-15T05:16:47;14.40;;;10.27;;
15516;SDS011;7860;52.030;5.572;2023-04-15T05:17:47;14.60;;;9.85;;
15516;SDS011;7860;52.030;5.572;2023-04-15T05:18:47;14.39;;;10.20;;
15516;SDS011;7860;52.030;5.572;2023-04-15T05:19:48;15.93;;;10.18;;
15516;SDS011;7860;52.030;5.572;2023-04-15T05:20:48;15.35;;;10.01;;
15516;SDS011;7860;52.030;5.572;2023-04-15T05:21:49;13.65;;;10.08;;
15516;SDS011;7860;52.030;5.572;2023-04-15T05:22:49;14.40;;;9.81;;
15516;SDS011;7860;52.030;5.572;2023-04-15T05:23:50;14.24;;;9.77;;
15516;SDS011;7860;52.030;5.572;2023-04-15T05:24:51;14.28;;;9.94;;
15516;SDS011;7860;52.030;5.572;2023-04-15T05:25:51;13.51;;;9.65;;
15516;SDS011;7860;52.030;5.572;2023-04-15T05:26:52;13.62;;;9.92;;
15516;SDS011;7860;52.030;5.572;2023-04-15T05:27:52;15.02;;;9.75;;
15516;SDS011;7860;52.030;5.572;2023-04-15T05:28:53;14.77;;;9.80;;
15516;SDS011;7860;52.030;5.572;2023-04-15T05:29:54;14.75;;;9.87;;
15516;SDS011;7860;52.030;5.572;2023-04-15T05:30:54;14.47;;;9.82;;
15516;SDS011;7860;52.030;5.572;2023-04-15T05:31:54;14.56;;;9.81;;
15516;SDS011;7860;52.030;5.572;2023-04-15T05:32:55;16.11;;;10.13;;
15516;SDS011;7860;52.030;5.572;2023-04-15T05:33:56;14.40;;;9.68;;
15516;SDS011;7860;52.030;5.572;2023-04-15T05:34:57;14.79;;;9.97;;
15516;SDS011;7860;52.030;5.572;2023-04-15T05:35:57;12.89;;;9.52;;
15516;SDS011;7860;52.030;5.572;2023-04-15T05:36:58;16.02;;;10.05;;
15516;SDS011;7860;52.030;5.572;2023-04-15T05:37:58;14.12;;;9.79;;
15516;SDS011;7860;52.030;5.572;2023-04-15T05:38:59;13.84;;;9.33;;
15516;SDS011;7860;52.030;5.572;2023-04-15T05:40:00;14.35;;;10.17;;
15516;SDS011;7860;52.030;5.572;2023-04-15T05:41:00;14.25;;;9.53;;
15516;SDS011;7860;52.030;5.572;2023-04-15T05:42:00;14.52;;;9.67;;
15516;SDS011;7860;52.030;5.572;2023-04-15T05:43:01;15.34;;;10.27;;
15516;SDS011;7860;52.030;5.572;2023-04-15T05:44:02;12.85;;;9.67;;
15516;SDS011;7860;52.030;5.572;2023-04-15T05:45:03;13.24;;;9.72;;
15516;SDS011;7860;52.030;5.572;2023-04-15T05:46:03;14.26;;;9.72;;
15516;SDS011;7860;52.030;5.572;2023-04-15T05:47:03;14.75;;;10.02;;
15516;SDS011;7860;52.030;5.572;2023-04-15T05:48:03;14.57;;;9.76;;
15516;SDS011;7860;52.030;5.572;2023-04-15T05:49:04;13.84;;;10.08;;
15516;SDS011;7860;52.030;5.572;2023-04-15T05:50:05;13.76;;;9.40;;
15516;SDS011;7860;52.030;5.572;2023-04-15T05:51:05;13.64;;;9.99;;
15516;SDS011;7860;52.030;5.572;2023-04-15T05:52:07;15.54;;;10.22;;
15516;SDS011;7860;52.030;5.572;2023-04-15T05:53:06;12.95;;;10.22;;
15516;SDS011;7860;52.030;5.572;2023-04-15T05:54:07;14.24;;;9.66;;
15516;SDS011;7860;52.030;5.572;2023-04-15T05:55:08;14.24;;;10.03;;
15516;SDS011;7860;52.030;5.572;2023-04-15T05:56:08;13.93;;;9.99;;
15516;SDS011;7860;52.030;5.572;2023-04-15T05:57:09;14.32;;;9.82;;
15516;SDS011;7860;52.030;5.572;2023-04-15T05:58:09;14.22;;;10.17;;
15516;SDS011;7860;52.030;5.572;2023-04-15T05:59:10;13.38;;;9.97;;
15516;SDS011;7860;52.030;5.572;2023-04-15T06:00:10;14.97;;;10.40;;
15516;SDS011;7860;52.030;5.572;2023-04-15T06:01:11;14.74;;;10.21;;
15516;SDS011;7860;52.030;5.572;2023-04-15T06:02:12;13.92;;;9.80;;
15516;SDS011;7860;52.030;5.572;2023-04-15T06:03:12;14.53;;;10.15;;
15516;SDS011;7860;52.030;5.572;2023-04-15T06:04:13;15.61;;;9.95;;
15516;SDS011;7860;52.030;5.572;2023-04-15T06:05:13;14.46;;;10.63;;
15516;SDS011;7860;52.030;5.572;2023-04-15T06:06:14;14.46;;;9.80;;
15516;SDS011;7860;52.030;5.572;2023-04-15T06:07:15;15.13;;;10.08;;